sensor_id;sensor_type;location;lat;lon;timestamp;pressure;altitude;pressure_sealevel;temperature;humidity
73338;BME280;61575;49.908;35.556;2023-01-29T00:02:29;99265.44;;;-2.34;79.53
73338;BME280;61575;49.908;35.556;2023-01-29T00:05:31;99269.94;;;-2.36;79.16
73338;BME280;61575;49.908;35.556;2023-01-29T00:08:34;99266.38;;;-2.35;79.32
73338;BME280;61575;49.908;35.556;2023-01-29T00:11:36;99261.75;;;-2.31;79.16
73338;BME280;61575;49.908;35.556;2023-01-29T00:14:38;99266.94;;;-2.30;79.15
73338;BME280;61575;49.908;35.556;2023-01-29T00:17:40;99254.53;;;-2.28;79.48
73338;BME280;61575;49.908;35.556;2023-01-29T00:20:42;99247.78;;;-2.32;79.42
73338;BME280;61575;49.908;35.556;2023-01-29T00:23:44;99248.53;;;-2.30;79.21
73338;BME280;61575;49.908;35.556;2023-01-29T00:26:46;99240.81;;;-2.33;79.12
73338;BME280;61575;49.908;35.556;2023-01-29T00:29:50;99246.28;;;-2.36;79.04
73338;BME280;61575;49.908;35.556;2023-01-29T00:33:09;99234.91;;;-2.36;79.03
73338;BME280;61575;49.908;35.556;2023-01-29T00:36:13;99230.69;;;-2.39;79.33
73338;BME280;61575;49.908;35.556;2023-01-29T00:39:15;99228.72;;;-2.35;79.21
73338;BME280;61575;49.908;35.556;2023-01-29T00:42:17;99239.50;;;-2.40;78.83
73338;BME280;61575;49.908;35.556;2023-01-29T00:45:37;99239.50;;;-2.40;79.11
73338;BME280;61575;49.908;35.556;2023-01-29T00:48:39;99246.47;;;-2.39;79.32
73338;BME280;61575;49.908;35.556;2023-01-29T00:51:42;99239.41;;;-2.38;78.97
73338;BME280;61575;49.908;35.556;2023-01-29T00:54:44;99236.97;;;-2.42;79.03
73338;BME280;61575;49.908;35.556;2023-01-29T00:57:46;99234.44;;;-2.43;79.17
73338;BME280;61575;49.908;35.556;2023-01-29T01:00:48;99236.88;;;-2.40;79.35
73338;BME280;61575;49.908;35.556;2023-01-29T01:03:50;99234.25;;;-2.40;79.37
73338;BME280;61575;49.908;35.556;2023-01-29T01:06:52;99232.28;;;-2.51;79.53
73338;BME280;61575;49.908;35.556;2023-01-29T01:09:54;99225.06;;;-2.47;79.18
73338;BME280;61575;49.908;35.556;2023-01-29T01:13:14;99223.19;;;-2.45;79.53
73338;BME280;61575;49.908;35.556;2023-01-29T01:16:16;99220.75;;;-2.48;79.62
73338;BME280;61575;49.908;35.556;2023-01-29T01:19:19;99210.97;;;-2.46;79.71
73338;BME280;61575;49.908;35.556;2023-01-29T01:22:21;99216.97;;;-2.44;79.97
73338;BME280;61575;49.908;35.556;2023-01-29T01:25:25;99220.94;;;-2.51;80.02
73338;BME280;61575;49.908;35.556;2023-01-29T01:28:27;99225.06;;;-2.47;80.33
73338;BME280;61575;49.908;35.556;2023-01-29T01:31:29;99223.38;;;-2.48;79.88
73338;BME280;61575;49.908;35.556;2023-01-29T01:34:32;99225.06;;;-2.47;80.16
73338;BME280;61575;49.908;35.556;2023-01-29T01:37:35;99217.38;;;-2.50;79.90
73338;BME280;61575;49.908;35.556;2023-01-29T01:40:43;99219.44;;;-2.55;79.94
73338;BME280;61575;49.908;35.556;2023-01-29T01:44:06;99220.28;;;-2.55;79.85
73338;BME280;61575;49.908;35.556;2023-01-29T01:47:08;99226.56;;;-2.57;80.00
73338;BME280;61575;49.908;35.556;2023-01-29T01:53:39;99215.31;;;-2.59;79.85
73338;BME280;61575;49.908;35.556;2023-01-29T01:56:46;99215.03;;;-2.55;79.42
73338;BME280;61575;49.908;35.556;2023-01-29T02:00:07;99217.66;;;-2.55;79.41
73338;BME280;61575;49.908;35.556;2023-01-29T02:03:16;99221.31;;;-2.57;79.81
73338;BME280;61575;49.908;35.556;2023-01-29T02:06:39;99217.66;;;-2.55;79.88
73338;BME280;61575;49.908;35.556;2023-01-29T02:10:07;99215.03;;;-2.55;79.57
73338;BME280;61575;49.908;35.556;2023-01-29T02:13:11;99218.69;;;-2.57;79.61
73338;BME280;61575;49.908;35.556;2023-01-29T02:16:13;99212.59;;;-2.58;79.23
73338;BME280;61575;49.908;35.556;2023-01-29T02:26:08;99222.16;;;-2.57;79.35
73338;BME280;61575;49.908;35.556;2023-01-29T02:29:17;99223.19;;;-2.59;79.46
73338;BME280;61575;49.908;35.556;2023-01-29T02:32:39;99224.13;;;-2.60;79.11
73338;BME280;61575;49.908;35.556;2023-01-29T02:35:49;99217.94;;;-2.59;79.21
73338;BME280;61575;49.908;35.556;2023-01-29T02:39:44;99218.78;;;-2.59;79.23
73338;BME280;61575;49.908;35.556;2023-01-29T02:42:28;99211.94;;;-2.61;79.21
73338;BME280;61575;49.908;35.556;2023-01-29T02:48:58;99211.94;;;-2.61;79.42
73338;BME280;61575;49.908;35.556;2023-01-29T02:52:18;99207.78;;;-2.65;79.46
73338;BME280;61575;49.908;35.556;2023-01-29T02:55:36;99201.69;;;-2.66;79.57
73338;BME280;61575;49.908;35.556;2023-01-29T02:58:45;99204.69;;;-2.72;79.57
73338;BME280;61575;49.908;35.556;2023-01-29T03:01:54;99210.63;;;-2.68;79.87
73338;BME280;61575;49.908;35.556;2023-01-29T03:04:59;99203.56;;;-2.68;79.87
73338;BME280;61575;49.908;35.556;2023-01-29T03:08:07;99211.56;;;-2.69;79.51
73338;BME280;61575;49.908;35.556;2023-01-29T03:11:13;99206.66;;;-2.76;79.72
73338;BME280;61575;49.908;35.556;2023-01-29T03:14:33;99202.16;;;-2.74;80.03
73338;BME280;61575;49.908;35.556;2023-01-29T03:18:00;99198.97;;;-2.79;79.58
73338;BME280;61575;49.908;35.556;2023-01-29T03:21:07;99206.66;;;-2.76;79.68
73338;BME280;61575;49.908;35.556;2023-01-29T03:27:59;99202.53;;;-2.80;79.63
73338;BME280;61575;49.908;35.556;2023-01-29T03:31:22;99203.66;;;-2.84;79.69
73338;BME280;61575;49.908;35.556;2023-01-29T03:34:49;99207.69;;;-2.92;79.79
73338;BME280;61575;49.908;35.556;2023-01-29T03:37:53;99206.00;;;-2.93;79.63
73338;BME280;61575;49.908;35.556;2023-01-29T03:48:10;99207.03;;;-2.82;79.46
73338;BME280;61575;49.908;35.556;2023-01-29T03:51:24;99207.63;;;-2.77;79.54
73338;BME280;61575;49.908;35.556;2023-01-29T03:54:33;99201.41;;;-2.76;79.19
73338;BME280;61575;49.908;35.556;2023-01-29T04:00:57;99202.91;;;-2.71;79.11
73338;BME280;61575;49.908;35.556;2023-01-29T04:04:12;99204.59;;;-2.70;78.86
73338;BME280;61575;49.908;35.556;2023-01-29T04:07:16;99203.09;;;-2.75;79.29
73338;BME280;61575;49.908;35.556;2023-01-29T04:10:24;99204.03;;;-2.76;79.30
73338;BME280;61575;49.908;35.556;2023-01-29T04:13:29;99208.34;;;-2.75;79.11
73338;BME280;61575;49.908;35.556;2023-01-29T04:16:40;99200.38;;;-2.73;79.27
73338;BME280;61575;49.908;35.556;2023-01-29T04:19:48;99204.97;;;-2.77;79.55
73338;BME280;61575;49.908;35.556;2023-01-29T04:22:50;99208.72;;;-2.81;79.48
73338;BME280;61575;49.908;35.556;2023-01-29T04:26:12;99212.03;;;-2.77;79.37
73338;BME280;61575;49.908;35.556;2023-01-29T04:39:24;99222.34;;;-2.88;79.84
73338;BME280;61575;49.908;35.556;2023-01-29T04:42:36;99219.81;;;-2.90;79.90
73338;BME280;61575;49.908;35.556;2023-01-29T04:45:54;99222.53;;;-2.91;80.07
73338;BME280;61575;49.908;35.556;2023-01-29T04:58:46;99221.97;;;-2.96;80.52
73338;BME280;61575;49.908;35.556;2023-01-29T05:01:51;99228.81;;;-2.94;80.57
73338;BME280;61575;49.908;35.556;2023-01-29T05:04:54;99234.44;;;-3.00;80.47
73338;BME280;61575;49.908;35.556;2023-01-29T05:07:59;99232.75;;;-3.01;81.12
73338;BME280;61575;49.908;35.556;2023-01-29T05:11:01;99227.50;;;-3.01;80.93
73338;BME280;61575;49.908;35.556;2023-01-29T05:14:05;99231.22;;;-3.05;80.79
73338;BME280;61575;49.908;35.556;2023-01-29T05:17:13;99232.00;;;-3.03;80.79
73338;BME280;61575;49.908;35.556;2023-01-29T05:20:16;99233.09;;;-3.07;80.74
73338;BME280;61575;49.908;35.556;2023-01-29T05:23:20;99229.72;;;-3.09;81.35
73338;BME280;61575;49.908;35.556;2023-01-29T05:26:23;99238.34;;;-3.07;80.88
73338;BME280;61575;49.908;35.556;2023-01-29T05:29:46;99231.50;;;-3.10;81.12
73338;BME280;61575;49.908;35.556;2023-01-29T05:32:48;99236.94;;;-3.13;81.28
73338;BME280;61575;49.908;35.556;2023-01-29T05:35:50;99233.00;;;-3.06;80.91
73338;BME280;61575;49.908;35.556;2023-01-29T05:38:52;99229.19;;;-3.00;80.93
73338;BME280;61575;49.908;35.556;2023-01-29T05:41:54;99234.44;;;-3.00;80.75
73338;BME280;61575;49.908;35.556;2023-01-29T05:44:56;99226.81;;;-3.04;81.13
73338;BME280;61575;49.908;35.556;2023-01-29T05:47:59;99232.06;;;-3.04;80.99
73338;BME280;61575;49.908;35.556;2023-01-29T05:51:03;99237.50;;;-3.08;80.88
73338;BME280;61575;49.908;35.556;2023-01-29T05:54:05;99245.13;;;-3.03;81.03
73338;BME280;61575;49.908;35.556;2023-01-29T05:57:07;99236.66;;;-3.08;81.30
73338;BME280;61575;49.908;35.556;2023-01-29T06:00:09;99239.47;;;-3.11;80.90
73338;BME280;61575;49.908;35.556;2023-01-29T06:03:14;99230.38;;;-3.06;80.91
73338;BME280;61575;49.908;35.556;2023-01-29T06:06:16;99229.63;;;-3.08;81.18
73338;BME280;61575;49.908;35.556;2023-01-29T06:09:18;99233.09;;;-3.07;80.85
73338;BME280;61575;49.908;35.556;2023-01-29T06:12:20;99227.94;;;-3.09;81.01
73338;BME280;61575;49.908;35.556;2023-01-29T06:15:22;99229.81;;;-3.11;80.95
73338;BME280;61575;49.908;35.556;2023-01-29T06:18:27;99224.75;;;-3.14;81.31
73338;BME280;61575;49.908;35.556;2023-01-29T06:21:28;99224.84;;;-3.15;80.82
73338;BME280;61575;49.908;35.556;2023-01-29T06:24:30;99225.50;;;-3.12;81.27
73338;BME280;61575;49.908;35.556;2023-01-29T06:27:33;99224.75;;;-3.14;80.78
73338;BME280;61575;49.908;35.556;2023-01-29T06:30:35;99212.28;;;-3.10;80.93
73338;BME280;61575;49.908;35.556;2023-01-29T06:33:37;99218.09;;;-3.05;80.75
73338;BME280;61575;49.908;35.556;2023-01-29T06:36:39;99221.28;;;-3.00;80.98
73338;BME280;61575;49.908;35.556;2023-01-29T06:39:42;99222.13;;;-2.99;80.80
73338;BME280;61575;49.908;35.556;2023-01-29T06:42:45;99226.66;;;-3.01;81.17
73338;BME280;61575;49.908;35.556;2023-01-29T06:45:55;99219.44;;;-2.98;80.91
73338;BME280;61575;49.908;35.556;2023-01-29T06:48:58;99229.00;;;-2.97;81.52
73338;BME280;61575;49.908;35.556;2023-01-29T06:52:01;99211.44;;;-2.96;81.43
73338;BME280;61575;49.908;35.556;2023-01-29T06:55:03;99220.44;;;-3.00;81.68
73338;BME280;61575;49.908;35.556;2023-01-29T06:58:07;99219.50;;;-2.99;81.13
73338;BME280;61575;49.908;35.556;2023-01-29T07:01:10;99217.72;;;-2.99;81.12
73338;BME280;61575;49.908;35.556;2023-01-29T07:04:29;99213.59;;;-3.03;81.38
73338;BME280;61575;49.908;35.556;2023-01-29T07:07:34;99216.22;;;-3.03;81.24
73338;BME280;61575;49.908;35.556;2023-01-29T07:10:37;99208.91;;;-2.98;81.13
73338;BME280;61575;49.908;35.556;2023-01-29T07:13:39;99208.53;;;-2.92;81.39
73338;BME280;61575;49.908;35.556;2023-01-29T07:16:41;99204.31;;;-2.94;80.79
73338;BME280;61575;49.908;35.556;2023-01-29T07:19:43;99199.34;;;-2.99;81.10
73338;BME280;61575;49.908;35.556;2023-01-29T07:22:44;99191.09;;;-2.93;80.80
73338;BME280;61575;49.908;35.556;2023-01-29T07:25:47;99183.03;;;-2.90;81.11
73338;BME280;61575;49.908;35.556;2023-01-29T07:28:50;99182.66;;;-2.84;80.83
73338;BME280;61575;49.908;35.556;2023-01-29T07:31:52;99186.03;;;-2.82;80.86
73338;BME280;61575;49.908;35.556;2023-01-29T07:34:54;99185.47;;;-2.72;80.59
73338;BME280;61575;49.908;35.556;2023-01-29T07:37:56;99185.28;;;-2.69;80.51
73338;BME280;61575;49.908;35.556;2023-01-29T07:40:58;99196.25;;;-2.63;80.65
73338;BME280;61575;49.908;35.556;2023-01-29T07:44:03;99198.88;;;-2.63;80.29
73338;BME280;61575;49.908;35.556;2023-01-29T07:47:05;99203.09;;;-2.60;80.11
73338;BME280;61575;49.908;35.556;2023-01-29T07:50:08;99215.59;;;-2.64;80.03
73338;BME280;61575;49.908;35.556;2023-01-29T07:53:13;99209.09;;;-2.58;80.29
73338;BME280;61575;49.908;35.556;2023-01-29T07:56:15;99212.47;;;-2.56;80.11
73338;BME280;61575;49.908;35.556;2023-01-29T07:59:17;99200.84;;;-2.52;80.18
73338;BME280;61575;49.908;35.556;2023-01-29T08:02:19;99201.13;;;-2.43;79.91
73338;BME280;61575;49.908;35.556;2023-01-29T08:05:21;99206.09;;;-2.38;79.73
73338;BME280;61575;49.908;35.556;2023-01-29T08:08:23;99207.88;;;-2.38;79.70
73338;BME280;61575;49.908;35.556;2023-01-29T08:11:26;99208.22;;;-2.30;79.90
73338;BME280;61575;49.908;35.556;2023-01-29T08:14:28;99203.22;;;-2.21;79.34
73338;BME280;61575;49.908;35.556;2023-01-29T08:17:30;99200.41;;;-2.18;79.13
73338;BME280;61575;49.908;35.556;2023-01-29T08:20:32;99198.22;;;-2.11;78.81
73338;BME280;61575;49.908;35.556;2023-01-29T08:23:34;99197.19;;;-2.09;78.85
73338;BME280;61575;49.908;35.556;2023-01-29T08:26:36;99203.19;;;-2.06;79.03
73338;BME280;61575;49.908;35.556;2023-01-29T08:29:37;99207.31;;;-2.02;78.93
73338;BME280;61575;49.908;35.556;2023-01-29T08:32:39;99195.09;;;-2.03;78.98
73338;BME280;61575;49.908;35.556;2023-01-29T08:35:41;99193.22;;;-2.01;78.90
73338;BME280;61575;49.908;35.556;2023-01-29T08:38:43;99189.84;;;-2.03;78.70
73338;BME280;61575;49.908;35.556;2023-01-29T08:41:45;99192.47;;;-2.03;78.71
73338;BME280;61575;49.908;35.556;2023-01-29T08:44:47;99190.28;;;-1.97;78.64
73338;BME280;61575;49.908;35.556;2023-01-29T08:47:49;99185.44;;;-2.03;78.24
73338;BME280;61575;49.908;35.556;2023-01-29T08:50:51;99191.81;;;-2.07;78.67
73338;BME280;61575;49.908;35.556;2023-01-29T08:53:53;99183.50;;;-2.14;78.55
73338;BME280;61575;49.908;35.556;2023-01-29T08:56:55;99180.75;;;-2.12;78.81
73338;BME280;61575;49.908;35.556;2023-01-29T08:59:57;99177.47;;;-2.16;78.52
73338;BME280;61575;49.908;35.556;2023-01-29T09:02:59;99173.72;;;-2.12;78.43
73338;BME280;61575;49.908;35.556;2023-01-29T09:06:02;99166.38;;;-2.06;78.67
73338;BME280;61575;49.908;35.556;2023-01-29T09:09:04;99166.06;;;-2.02;78.55
73338;BME280;61575;49.908;35.556;2023-01-29T09:12:06;99169.75;;;-2.04;78.59
73338;BME280;61575;49.908;35.556;2023-01-29T09:15:08;99166.16;;;-2.03;78.38
73338;BME280;61575;49.908;35.556;2023-01-29T09:18:10;99157.09;;;-2.12;78.36
73338;BME280;61575;49.908;35.556;2023-01-29T09:21:12;99160.94;;;-2.18;78.27
73338;BME280;61575;49.908;35.556;2023-01-29T09:24:14;99164.31;;;-2.16;78.33
73338;BME280;61575;49.908;35.556;2023-01-29T09:27:16;99155.69;;;-2.18;78.50
73338;BME280;61575;49.908;35.556;2023-01-29T09:30:18;99155.69;;;-2.18;78.10
73338;BME280;61575;49.908;35.556;2023-01-29T09:33:20;99162.44;;;-2.14;77.86
73338;BME280;61575;49.908;35.556;2023-01-29T09:36:22;99165.81;;;-2.12;78.06
73338;BME280;61575;49.908;35.556;2023-01-29T09:39:25;99159.81;;;-2.14;77.57
73338;BME280;61575;49.908;35.556;2023-01-29T09:46:27;99143.81;;;-2.11;77.64
73338;BME280;61575;49.908;35.556;2023-01-29T09:49:35;99147.31;;;-2.10;77.32
73338;BME280;61575;49.908;35.556;2023-01-29T09:52:45;99150.03;;;-2.12;77.25
73338;BME280;61575;49.908;35.556;2023-01-29T09:55:52;99149.84;;;-2.09;77.04
73338;BME280;61575;49.908;35.556;2023-01-29T09:58:57;99143.94;;;-2.12;77.56
73338;BME280;61575;49.908;35.556;2023-01-29T10:02:16;99142.25;;;-2.13;77.35
73338;BME280;61575;49.908;35.556;2023-01-29T10:25:26;99131.81;;;-2.15;77.58
73338;BME280;61575;49.908;35.556;2023-01-29T10:28:40;99131.63;;;-2.12;77.71
73338;BME280;61575;49.908;35.556;2023-01-29T10:31:52;99128.38;;;-2.02;77.38
73338;BME280;61575;49.908;35.556;2023-01-29T10:35:19;99130.19;;;-2.03;77.25
73338;BME280;61575;49.908;35.556;2023-01-29T10:38:42;99125.06;;;-1.92;77.39
73338;BME280;61575;49.908;35.556;2023-01-29T10:45:41;99125.56;;;-1.99;77.05
73338;BME280;61575;49.908;35.556;2023-01-29T10:58:33;99114.59;;;-2.06;77.35
73338;BME280;61575;49.908;35.556;2023-01-29T11:01:37;99109.72;;;-2.12;77.09
73338;BME280;61575;49.908;35.556;2023-01-29T11:04:39;99109.63;;;-2.11;77.34
73338;BME280;61575;49.908;35.556;2023-01-29T11:07:41;99107.53;;;-2.05;77.26
73338;BME280;61575;49.908;35.556;2023-01-29T11:11:07;99106.06;;;-2.10;77.33
73338;BME280;61575;49.908;35.556;2023-01-29T11:14:20;99104.50;;;-1.99;77.53
73338;BME280;61575;49.908;35.556;2023-01-29T11:17:24;99093.44;;;-2.04;77.14
73338;BME280;61575;49.908;35.556;2023-01-29T11:21:00;99100.38;;;-2.03;77.59
73338;BME280;61575;49.908;35.556;2023-01-29T11:24:05;99101.78;;;-1.98;77.38
73338;BME280;61575;49.908;35.556;2023-01-29T11:27:28;99108.63;;;-1.95;77.27
73338;BME280;61575;49.908;35.556;2023-01-29T11:30:37;99106.09;;;-1.97;77.05
73338;BME280;61575;49.908;35.556;2023-01-29T11:33:40;99100.19;;;-2.00;77.40
73338;BME280;61575;49.908;35.556;2023-01-29T11:36:42;99093.25;;;-2.01;77.14
73338;BME280;61575;49.908;35.556;2023-01-29T11:39:45;99106.41;;;-2.01;77.23
73338;BME280;61575;49.908;35.556;2023-01-29T11:42:51;99109.56;;;-1.96;76.91
73338;BME280;61575;49.908;35.556;2023-01-29T11:45:57;99109.16;;;-1.90;76.83
73338;BME280;61575;49.908;35.556;2023-01-29T11:49:02;99112.00;;;-1.93;76.90
73338;BME280;61575;49.908;35.556;2023-01-29T11:52:23;99107.69;;;-1.94;76.75
73338;BME280;61575;49.908;35.556;2023-01-29T11:55:31;99114.63;;;-1.93;76.96
73338;BME280;61575;49.908;35.556;2023-01-29T11:58:52;99116.91;;;-2.01;77.13
73338;BME280;61575;49.908;35.556;2023-01-29T12:02:04;99114.28;;;-2.01;77.71
73338;BME280;61575;49.908;35.556;2023-01-29T12:05:16;99114.09;;;-1.98;77.60
73338;BME280;61575;49.908;35.556;2023-01-29T12:08:19;99109.66;;;-1.98;77.49
73338;BME280;61575;49.908;35.556;2023-01-29T12:11:30;99113.88;;;-1.95;77.48
73338;BME280;61575;49.908;35.556;2023-01-29T12:14:32;99113.78;;;-1.94;77.74
73338;BME280;61575;49.908;35.556;2023-01-29T12:17:37;99112.31;;;-1.98;77.63
73338;BME280;61575;49.908;35.556;2023-01-29T12:20:53;99113.53;;;-2.03;77.93
73338;BME280;61575;49.908;35.556;2023-01-29T12:30:50;99115.09;;;-2.14;78.81
73338;BME280;61575;49.908;35.556;2023-01-29T12:34:09;99128.78;;;-2.09;78.77
73338;BME280;61575;49.908;35.556;2023-01-29T12:40:20;99121.25;;;-2.00;78.53
73338;BME280;61575;49.908;35.556;2023-01-29T12:43:37;99130.41;;;-1.93;78.50
73338;BME280;61575;49.908;35.556;2023-01-29T12:46:46;99119.47;;;-1.87;78.27
73338;BME280;61575;49.908;35.556;2023-01-29T12:49:54;99133.16;;;-1.95;77.95
73338;BME280;61575;49.908;35.556;2023-01-29T12:53:19;99121.13;;;-1.99;77.70
73338;BME280;61575;49.908;35.556;2023-01-29T12:56:29;99121.84;;;-2.10;77.59
73338;BME280;61575;49.908;35.556;2023-01-29T12:59:57;99124.66;;;-2.13;77.49
73338;BME280;61575;49.908;35.556;2023-01-29T13:06:34;99125.50;;;-2.12;77.34
73338;BME280;61575;49.908;35.556;2023-01-29T13:09:38;99123.94;;;-2.15;77.17
73338;BME280;61575;49.908;35.556;2023-01-29T13:12:55;99119.31;;;-2.11;77.11
73338;BME280;61575;49.908;35.556;2023-01-29T13:15:59;99125.16;;;-2.20;76.98
73338;BME280;61575;49.908;35.556;2023-01-29T13:19:05;99123.72;;;-2.12;76.98
73338;BME280;61575;49.908;35.556;2023-01-29T13:22:18;99126.06;;;-2.07;76.56
73338;BME280;61575;49.908;35.556;2023-01-29T13:25:22;99128.78;;;-2.09;76.96
73338;BME280;61575;49.908;35.556;2023-01-29T13:28:25;99125.31;;;-2.09;76.97
73338;BME280;61575;49.908;35.556;2023-01-29T13:34:32;99130.97;;;-2.15;76.85
73338;BME280;61575;49.908;35.556;2023-01-29T13:37:40;99130.31;;;-2.19;77.27
73338;BME280;61575;49.908;35.556;2023-01-29T13:40:50;99123.19;;;-2.17;77.54
73338;BME280;61575;49.908;35.556;2023-01-29T13:43:52;99133.59;;;-2.15;77.41
73338;BME280;61575;49.908;35.556;2023-01-29T13:50:19;99128.59;;;-2.05;77.49
73338;BME280;61575;49.908;35.556;2023-01-29T13:53:24;99123.81;;;-2.13;77.52
73338;BME280;61575;49.908;35.556;2023-01-29T14:00:03;99133.34;;;-2.25;77.37
73338;BME280;61575;49.908;35.556;2023-01-29T14:06:39;99129.88;;;-2.25;77.77
73338;BME280;61575;49.908;35.556;2023-01-29T14:12:44;99133.44;;;-2.26;77.66
73338;BME280;61575;49.908;35.556;2023-01-29T14:18:59;99132.06;;;-2.32;77.82
73338;BME280;61575;49.908;35.556;2023-01-29T14:22:04;99131.97;;;-2.30;77.83
73338;BME280;61575;49.908;35.556;2023-01-29T14:25:07;99137.22;;;-2.30;78.21
73338;BME280;61575;49.908;35.556;2023-01-29T14:28:23;99144.56;;;-2.35;78.02
73338;BME280;61575;49.908;35.556;2023-01-29T14:31:29;99142.88;;;-2.36;78.49
73338;BME280;61575;49.908;35.556;2023-01-29T14:34:34;99146.25;;;-2.34;78.45
73338;BME280;61575;49.908;35.556;2023-01-29T14:37:38;99142.41;;;-2.43;78.91
73338;BME280;61575;49.908;35.556;2023-01-29T14:40:44;99147.28;;;-2.37;78.70
73338;BME280;61575;49.908;35.556;2023-01-29T14:43:47;99147.09;;;-2.34;78.61
73338;BME280;61575;49.908;35.556;2023-01-29T14:46:49;99144.09;;;-2.42;78.54
73338;BME280;61575;49.908;35.556;2023-01-29T14:50:01;99149.47;;;-2.44;78.79
73338;BME280;61575;49.908;35.556;2023-01-29T14:53:11;99148.34;;;-2.39;78.29
73338;BME280;61575;49.908;35.556;2023-01-29T15:02:40;99157.44;;;-2.45;78.34
73338;BME280;61575;49.908;35.556;2023-01-29T15:05:44;99155.75;;;-2.46;78.40
73338;BME280;61575;49.908;35.556;2023-01-29T15:15:42;99156.16;;;-2.52;78.33
73338;BME280;61575;49.908;35.556;2023-01-29T15:18:48;99151.75;;;-2.52;78.39
73338;BME280;61575;49.908;35.556;2023-01-29T15:25:13;99157.84;;;-2.51;78.13
73338;BME280;61575;49.908;35.556;2023-01-29T15:28:16;99162.06;;;-2.49;77.93
73338;BME280;61575;49.908;35.556;2023-01-29T15:31:18;99170.03;;;-2.50;78.13
73338;BME280;61575;49.908;35.556;2023-01-29T15:34:21;99168.53;;;-2.54;78.21
73338;BME280;61575;49.908;35.556;2023-01-29T15:37:31;99177.09;;;-2.51;77.86
73338;BME280;61575;49.908;35.556;2023-01-29T15:40:33;99182.91;;;-2.46;78.27
73338;BME280;61575;49.908;35.556;2023-01-29T15:43:42;99186.66;;;-2.50;78.23
73338;BME280;61575;49.908;35.556;2023-01-29T15:46:50;99177.00;;;-2.49;78.45
73338;BME280;61575;49.908;35.556;2023-01-29T15:49:53;99173.63;;;-2.51;78.50
73338;BME280;61575;49.908;35.556;2023-01-29T15:53:00;99180.75;;;-2.53;78.66
73338;BME280;61575;49.908;35.556;2023-01-29T15:56:08;99176.44;;;-2.54;78.48
73338;BME280;61575;49.908;35.556;2023-01-29T15:59:21;99175.31;;;-2.50;78.51
73338;BME280;61575;49.908;35.556;2023-01-29T16:05:29;99171.94;;;-2.52;78.75
73338;BME280;61575;49.908;35.556;2023-01-29T16:08:34;99170.88;;;-2.50;78.49
73338;BME280;61575;49.908;35.556;2023-01-29T16:11:36;99170.88;;;-2.50;78.43
73338;BME280;61575;49.908;35.556;2023-01-29T16:14:39;99167.59;;;-2.53;78.59
73338;BME280;61575;49.908;35.556;2023-01-29T16:17:43;99173.41;;;-2.48;78.46
73338;BME280;61575;49.908;35.556;2023-01-29T16:20:51;99179.06;;;-2.54;78.53
73338;BME280;61575;49.908;35.556;2023-01-29T16:24:11;99184.22;;;-2.53;78.21
73338;BME280;61575;49.908;35.556;2023-01-29T16:27:16;99181.03;;;-2.58;78.43
73338;BME280;61575;49.908;35.556;2023-01-29T16:30:18;99178.41;;;-2.58;78.40
73338;BME280;61575;49.908;35.556;2023-01-29T16:33:20;99174.19;;;-2.60;78.08
73338;BME280;61575;49.908;35.556;2023-01-29T16:36:25;99174.38;;;-2.63;78.17
73338;BME280;61575;49.908;35.556;2023-01-29T16:39:34;99175.41;;;-2.66;78.12
73338;BME280;61575;49.908;35.556;2023-01-29T16:42:38;99176.44;;;-2.68;78.25
73338;BME280;61575;49.908;35.556;2023-01-29T16:45:42;99186.22;;;-2.70;77.90
73338;BME280;61575;49.908;35.556;2023-01-29T16:52:27;99188.00;;;-2.71;77.88
73338;BME280;61575;49.908;35.556;2023-01-29T16:55:41;99186.97;;;-2.68;78.30
73338;BME280;61575;49.908;35.556;2023-01-29T16:58:51;99189.78;;;-2.71;78.29
73338;BME280;61575;49.908;35.556;2023-01-29T17:01:54;99188.84;;;-2.70;78.11
73338;BME280;61575;49.908;35.556;2023-01-29T17:05:00;99189.88;;;-2.73;78.12
73338;BME280;61575;49.908;35.556;2023-01-29T17:08:03;99188.84;;;-2.70;78.08
73338;BME280;61575;49.908;35.556;2023-01-29T17:11:06;99188.84;;;-2.70;78.28
73338;BME280;61575;49.908;35.556;2023-01-29T17:14:16;99182.53;;;-2.68;78.56
73338;BME280;61575;49.908;35.556;2023-01-29T17:17:19;99188.47;;;-2.64;78.34
73338;BME280;61575;49.908;35.556;2023-01-29T17:20:21;99186.03;;;-2.67;78.51
73338;BME280;61575;49.908;35.556;2023-01-29T17:23:23;99192.31;;;-2.70;78.72
73338;BME280;61575;49.908;35.556;2023-01-29T17:26:25;99187.06;;;-2.70;78.71
73338;BME280;61575;49.908;35.556;2023-01-29T17:29:30;99187.44;;;-2.76;78.55
73338;BME280;61575;49.908;35.556;2023-01-29T17:32:32;99183.97;;;-2.77;78.81
73338;BME280;61575;49.908;35.556;2023-01-29T17:35:45;99193.06;;;-2.82;78.70
73338;BME280;61575;49.908;35.556;2023-01-29T17:38:47;99192.50;;;-2.87;78.88
73338;BME280;61575;49.908;35.556;2023-01-29T17:41:54;99189.88;;;-2.87;78.80
73338;BME280;61575;49.908;35.556;2023-01-29T17:44:56;99195.50;;;-2.93;78.92
73338;BME280;61575;49.908;35.556;2023-01-29T17:47:58;99200.84;;;-2.95;78.81
73338;BME280;61575;49.908;35.556;2023-01-29T17:51:02;99197.56;;;-2.98;78.58
73338;BME280;61575;49.908;35.556;2023-01-29T17:54:05;99193.16;;;-2.98;78.60
73338;BME280;61575;49.908;35.556;2023-01-29T17:57:17;99195.13;;;-3.01;78.08
73338;BME280;61575;49.908;35.556;2023-01-29T18:00:22;99195.97;;;-3.01;78.31
73338;BME280;61575;49.908;35.556;2023-01-29T18:03:24;99196.72;;;-2.99;78.31
73338;BME280;61575;49.908;35.556;2023-01-29T18:06:28;99193.53;;;-3.04;78.36
73338;BME280;61575;49.908;35.556;2023-01-29T18:09:30;99187.16;;;-3.00;78.23
73338;BME280;61575;49.908;35.556;2023-01-29T18:12:32;99182.09;;;-2.89;78.44
73338;BME280;61575;49.908;35.556;2023-01-29T18:15:34;99184.53;;;-2.86;78.11
73338;BME280;61575;49.908;35.556;2023-01-29T18:18:36;99179.09;;;-2.83;78.46
73338;BME280;61575;49.908;35.556;2023-01-29T18:21:38;99180.88;;;-2.83;78.19
73338;BME280;61575;49.908;35.556;2023-01-29T18:24:40;99180.41;;;-2.90;78.40
73338;BME280;61575;49.908;35.556;2023-01-29T18:27:42;99180.88;;;-2.97;78.87
73338;BME280;61575;49.908;35.556;2023-01-29T18:30:45;99182.06;;;-3.03;78.73
73338;BME280;61575;49.908;35.556;2023-01-29T18:33:48;99185.19;;;-2.96;78.56
73338;BME280;61575;49.908;35.556;2023-01-29T18:36:50;99181.81;;;-2.98;78.68